Sikania — D5KI7 — position and weather

sailwx.info

Track history (hours):
 
Tides and Currents Weather Stations Pressure Air Temp Water Temp Dewpoint Dewpoint Depression Visibility Wind Speed Wind Dir Waves Ship Positions

Sikania

Last reported at 2018-Feb-21 04:00 UTC. Time now 2018-Feb-21 23:18 UTC.
Position N 41°14' W 072°09'.

Length 190 m; draft 8.3 m.

Type: Cargo ship. MMSI: 636017321.

Date/timePositionNaut miles runAvg speedWind from/ knotsBaromVisibWave heightAir tempDewpointWater temp
2018-Feb-21 04:00N 41°14' W 072°09'611.6
2018-Feb-21 03:30N 41°12' W 072°17'611.5
2018-Feb-21 03:00N 41°11' W 072°24'611.9
2018-Feb-21 02:30N 41°10' W 072°32'612.8
2018-Feb-21 02:00N 41°11' W 072°40'  
2018-Feb-15 20:41N 41°12' W 072°51'0 0.1
2018-Feb-15 16:11N 41°12' W 072°51'0 0.2
2018-Feb-15 15:47N 41°12' W 072°51'0 0.1
2018-Feb-15 15:29N 41°12' W 072°51'0 0.0
2018-Feb-15 14:47N 41°12' W 072°51'0 0.0
2018-Feb-15 14:29N 41°12' W 072°51'0 0.0
2018-Feb-15 13:53N 41°12' W 072°51'0 0.2
2018-Feb-15 13:23N 41°12' W 072°51'1 1.8
2018-Feb-15 13:00N 41°12' W 072°50'510.6
2018-Feb-15 12:31N 41°11' W 072°43'713.3
2018-Feb-15 12:00N 41°10' W 072°34'714.0
2018-Feb-15 11:30N 41°10' W 072°25'713.8
2018-Feb-15 11:00N 41°12' W 072°16'713.1
2018-Feb-15 10:30N 41°14' W 072°08'80 6.3
2018-Feb-14 21:40N 40°24' W 073°31'412.3
2018-Feb-14 21:20N 40°25' W 073°37'412.2
2018-Feb-14 21:00N 40°26' W 073°42'611.4
2018-Feb-14 20:29N 40°27' W 073°49'4 8.7
2018-Feb-14 20:00N 40°29' W 073°54'510.8
2018-Feb-14 19:30N 40°32' W 074°01'612.1
2018-Feb-14 19:01N 40°37' W 074°03'2 3.0
2018-Feb-14 18:28N 40°39' W 074°03'0 0.0
2018-Feb-14 17:58N 40°39' W 074°03'0 0.0
2018-Feb-14 17:28N 40°39' W 074°03'0 0.0
2018-Feb-14 16:58N 40°39' W 074°03'0 0.1
2018-Feb-14 16:28N 40°39' W 074°03'0 0.1
2018-Feb-14 15:58N 40°39' W 074°03'0 0.1
2018-Feb-14 15:28N 40°39' W 074°03'0 0.2
2018-Feb-14 14:58N 40°39' W 074°03'0 0.1
2018-Feb-14 14:25N 40°39' W 074°03'0 0.0
2018-Feb-14 13:58N 40°39' W 074°03'0 0.1
2018-Feb-14 13:28N 40°39' W 074°03'0 0.0
2018-Feb-14 12:58N 40°39' W 074°03'0 0.0
2018-Feb-14 12:28N 40°39' W 074°03'0 0.0
2018-Feb-14 11:58N 40°39' W 074°03'0 0.0
2018-Feb-14 11:28N 40°39' W 074°03'0 0.0
2018-Feb-14 10:58N 40°39' W 074°03'0 0.0
2018-Feb-14 10:28N 40°39' W 074°03'0 0.1
2018-Feb-14 09:58N 40°39' W 074°03'0 0.3
2018-Feb-14 09:28N 40°39' W 074°03'0 0.1
2018-Feb-14 08:58N 40°39' W 074°03'0 0.0
2018-Feb-14 08:28N 40°39' W 074°03'0 0.0
2018-Feb-14 07:58N 40°39' W 074°03'0 0.0
2018-Feb-14 07:28N 40°39' W 074°03'0 0.0
2018-Feb-14 06:58N 40°39' W 074°03'0 0.0
2018-Feb-14 06:28N 40°39' W 074°03'0 0.0
2018-Feb-14 05:58N 40°39' W 074°03'0 0.1
2018-Feb-14 05:28N 40°39' W 074°03'0 0.1
2018-Feb-14 04:58N 40°39' W 074°03'0 0.1
2018-Feb-14 04:28N 40°39' W 074°03'0 0.1
2018-Feb-14 03:58N 40°39' W 074°03'0 0.1
2018-Feb-14 03:28N 40°39' W 074°03'0 0.2
2018-Feb-14 02:58N 40°39' W 074°03'0 0.3
2018-Feb-14 02:28N 40°39' W 074°03'0 0.1
2018-Feb-14 01:58N 40°39' W 074°03'0 0.0
2018-Feb-14 01:28N 40°39' W 074°03'0 0.0
2018-Feb-14 00:58N 40°39' W 074°03'0 0.0
2018-Feb-14 00:28N 40°39' W 074°03'0 0.0
2018-Feb-13 23:58N 40°39' W 074°03'0 0.1
2018-Feb-13 23:28N 40°39' W 074°03'0 0.1
2018-Feb-13 22:58N 40°39' W 074°03'0 0.0
2018-Feb-13 22:28N 40°39' W 074°03'0 0.0
2018-Feb-13 21:58N 40°39' W 074°03'0 0.1
2018-Feb-13 21:28N 40°39' W 074°03'0 0.2
2018-Feb-13 20:58N 40°39' W 074°03'0 0.1
2018-Feb-13 20:28N 40°39' W 074°03'0 0.3
2018-Feb-13 20:00N 40°39' W 074°03'2 3.5
2018-Feb-13 19:30N 40°39' W 074°05'3 5.5
2018-Feb-13 19:00N 40°39' W 074°09'2 4.5
2018-Feb-13 18:29N 40°41' W 074°09'0 0.4
2018-Feb-13 17:59N 40°41' W 074°08'0 0.0
2018-Feb-13 17:29N 40°41' W 074°08'0 0.0
2018-Feb-13 16:59N 40°41' W 074°08'0 0.0
2018-Feb-13 16:29N 40°41' W 074°08'0 0.0
2018-Feb-13 15:59N 40°41' W 074°08'0 0.0
2018-Feb-13 15:29N 40°41' W 074°08'0 0.0
2018-Feb-13 14:59N 40°41' W 074°08'0 0.0
2018-Feb-13 14:29N 40°41' W 074°08'0 0.0
2018-Feb-13 13:59N 40°41' W 074°08'0 0.0
2018-Feb-13 13:29N 40°41' W 074°08'0 0.0
2018-Feb-13 12:59N 40°41' W 074°08'0 0.0
2018-Feb-13 12:29N 40°41' W 074°08'0 0.0
2018-Feb-13 11:59N 40°41' W 074°08'0 0.0
2018-Feb-13 11:29N 40°41' W 074°08'0 0.0
2018-Feb-13 10:59N 40°41' W 074°08'0 0.0
2018-Feb-13 10:29N 40°41' W 074°08'0 0.0
2018-Feb-13 09:59N 40°41' W 074°08'0 0.0
2018-Feb-13 09:29N 40°41' W 074°08'0 0.0
2018-Feb-13 08:59N 40°41' W 074°08'0 0.0
2018-Feb-13 08:29N 40°41' W 074°08'0 0.0
2018-Feb-13 07:59N 40°41' W 074°08'0 0.0
2018-Feb-13 07:29N 40°41' W 074°08'0 0.0
2018-Feb-13 06:59N 40°41' W 074°08'0 0.0
2018-Feb-13 06:29N 40°41' W 074°08'0 0.0
2018-Feb-13 05:59N 40°41' W 074°08'0 0.0
2018-Feb-13 05:29N 40°41' W 074°08'0 0.0
2018-Feb-13 04:59N 40°41' W 074°08'0 0.0
2018-Feb-13 04:29N 40°41' W 074°08'0 0.0
2018-Feb-13 03:59N 40°41' W 074°08'0 0.0
2018-Feb-13 03:29N 40°41' W 074°08'0 0.0
2018-Feb-13 02:59N 40°41' W 074°08'0 0.0
2018-Feb-13 02:29N 40°41' W 074°08'0 0.0
2018-Feb-13 01:59N 40°41' W 074°08'0 0.0
2018-Feb-13 01:29N 40°41' W 074°08'0 0.0
2018-Feb-13 00:59N 40°41' W 074°08'0 0.0
2018-Feb-13 00:29N 40°41' W 074°08'0 0.0
2018-Feb-12 23:59N 40°41' W 074°08'0 0.0
2018-Feb-12 23:29N 40°41' W 074°08'0 0.0
2018-Feb-12 22:59N 40°41' W 074°08'0 0.0
2018-Feb-12 22:29N 40°41' W 074°08'0 0.0
2018-Feb-12 21:59N 40°41' W 074°08'0 0.0
2018-Feb-12 21:29N 40°41' W 074°08'0 0.0
2018-Feb-12 20:53N 40°41' W 074°08'0 0.0
2018-Feb-12 20:29N 40°41' W 074°08'0 0.0
2018-Feb-12 19:59N 40°41' W 074°08'0 0.0
2018-Feb-12 19:29N 40°41' W 074°08'0 0.0
2018-Feb-12 18:59N 40°41' W 074°08'0 0.0
2018-Feb-12 18:29N 40°41' W 074°08'0 0.0
2018-Feb-12 17:59N 40°41' W 074°08'0 0.0
2018-Feb-12 17:29N 40°41' W 074°08'0 0.0
2018-Feb-12 16:59N 40°41' W 074°08'0 0.0
2018-Feb-12 16:29N 40°41' W 074°08'0 0.0
2018-Feb-12 15:59N 40°41' W 074°08'0 0.0
2018-Feb-12 15:17N 40°41' W 074°08'0 0.0
2018-Feb-12 14:59N 40°41' W 074°08'0 0.0
2018-Feb-12 14:29N 40°41' W 074°08'0 0.0
2018-Feb-12 13:59N 40°41' W 074°08'0 0.0
2018-Feb-12 13:29N 40°41' W 074°08'0 0.0
2018-Feb-12 12:59N 40°41' W 074°08'0 0.0
2018-Feb-12 12:29N 40°41' W 074°08'0 0.0
2018-Feb-12 11:59N 40°41' W 074°08'0 0.0
2018-Feb-12 11:29N 40°41' W 074°08'0 0.0
2018-Feb-12 10:59N 40°41' W 074°08'0 0.0
2018-Feb-12 10:29N 40°41' W 074°08'0 0.0
2018-Feb-12 09:59N 40°41' W 074°08'0 0.0
2018-Feb-12 09:29N 40°41' W 074°08'0 0.0
2018-Feb-12 08:59N 40°41' W 074°08'0 0.0
2018-Feb-12 08:29N 40°41' W 074°08'0 0.0
2018-Feb-12 07:59N 40°41' W 074°08'0 0.0
2018-Feb-12 07:29N 40°41' W 074°08'0 0.0
2018-Feb-12 06:59N 40°41' W 074°08'0 0.0
2018-Feb-12 06:29N 40°41' W 074°08'0 0.0
2018-Feb-12 05:59N 40°41' W 074°08'0 0.0
2018-Feb-12 05:29N 40°41' W 074°08'0 0.0
2018-Feb-12 04:59N 40°41' W 074°08'0 0.0
2018-Feb-12 04:29N 40°41' W 074°08'0 0.0
2018-Feb-12 03:59N 40°41' W 074°08'0 0.0
2018-Feb-12 03:29N 40°41' W 074°08'0 0.0
2018-Feb-12 02:59N 40°41' W 074°08'0 0.0
2018-Feb-12 02:29N 40°41' W 074°08'0 0.0
2018-Feb-12 01:59N 40°41' W 074°08'0 0.0
2018-Feb-12 01:29N 40°41' W 074°08'0 0.0
2018-Feb-12 00:59N 40°41' W 074°08'0 0.0
2018-Feb-12 00:29N 40°41' W 074°08'0 0.0
2018-Feb-11 23:59N 40°41' W 074°08'0 0.0
2018-Feb-11 23:29N 40°41' W 074°08'0 0.0
2018-Feb-11 22:59N 40°41' W 074°08'0 0.0
2018-Feb-11 22:29N 40°41' W 074°08'0 0.0
2018-Feb-11 21:59N 40°41' W 074°08'0 0.0
2018-Feb-11 21:29N 40°41' W 074°08'0 0.0
2018-Feb-11 20:59N 40°41' W 074°08'0 0.0
2018-Feb-11 20:29N 40°41' W 074°08'0 0.0
2018-Feb-11 19:59N 40°41' W 074°08'0 0.0
2018-Feb-11 19:29N 40°41' W 074°08'0 0.0
2018-Feb-11 18:59N 40°41' W 074°08'0 0.0
2018-Feb-11 18:29N 40°41' W 074°08'0 0.0
2018-Feb-11 17:59N 40°41' W 074°08'0 0.0
2018-Feb-11 17:29N 40°41' W 074°08'0 0.0
2018-Feb-11 16:59N 40°41' W 074°08'0 0.0
2018-Feb-11 16:29N 40°41' W 074°08'0 0.0
2018-Feb-11 15:59N 40°41' W 074°08'0 0.0
2018-Feb-11 15:29N 40°41' W 074°08'0 0.0
2018-Feb-11 14:59N 40°41' W 074°08'0 0.0
2018-Feb-11 14:29N 40°41' W 074°08'0 0.0
2018-Feb-11 13:59N 40°41' W 074°08'0 0.0
2018-Feb-11 13:29N 40°41' W 074°08'0 0.0
2018-Feb-11 12:59N 40°41' W 074°08'0 0.0
2018-Feb-11 12:29N 40°41' W 074°08'0 0.0
2018-Feb-11 11:59N 40°41' W 074°08'0 0.0
2018-Feb-11 11:29N 40°41' W 074°08'0 0.0
2018-Feb-11 10:59N 40°41' W 074°08'0 0.0
2018-Feb-11 10:29N 40°41' W 074°08'0 0.0
2018-Feb-11 09:59N 40°41' W 074°08'0 0.0
2018-Feb-11 09:29N 40°41' W 074°08'0 0.0
2018-Feb-11 08:59N 40°41' W 074°08'0 0.0
2018-Feb-11 08:29N 40°41' W 074°08'0 0.0
2018-Feb-11 07:59N 40°41' W 074°08'0 0.0
2018-Feb-11 07:29N 40°41' W 074°08'0 0.0
2018-Feb-11 06:59N 40°41' W 074°08'0 0.0
2018-Feb-11 06:29N 40°41' W 074°08'0 0.0
2018-Feb-11 05:59N 40°41' W 074°08'0 0.0
2018-Feb-11 05:29N 40°41' W 074°08'0 0.0
2018-Feb-11 04:59N 40°41' W 074°08'0 0.0
2018-Feb-11 04:29N 40°41' W 074°08'  
Track history (hours):
 
Tides and Currents Weather Stations Pressure Air Temp Water Temp Dewpoint Dewpoint Depression Visibility Wind Speed Wind Dir Waves Ship Positions

Sikania

Last reported at 2018-Feb-21 04:00 UTC. Time now 2018-Feb-21 23:18 UTC.
Position N 41°14' W 072°09'.

Length 190 m; draft 8.3 m.

Type: Cargo ship. MMSI: 636017321.

Date/timePositionNaut miles runAvg speedWind from/ knotsBaromVisibWave heightAir tempDewpointWater temp
2018-Feb-21 04:00N 41°14' W 072°09'611.6
2018-Feb-21 03:30N 41°12' W 072°17'611.5
2018-Feb-21 03:00N 41°11' W 072°24'611.9
2018-Feb-21 02:30N 41°10' W 072°32'612.8
2018-Feb-21 02:00N 41°11' W 072°40'  
2018-Feb-15 20:41N 41°12' W 072°51'0 0.1
2018-Feb-15 16:11N 41°12' W 072°51'0 0.2
2018-Feb-15 15:47N 41°12' W 072°51'0 0.1
2018-Feb-15 15:29N 41°12' W 072°51'0 0.0
2018-Feb-15 14:47N 41°12' W 072°51'0 0.0
2018-Feb-15 14:29N 41°12' W 072°51'0 0.0
2018-Feb-15 13:53N 41°12' W 072°51'0 0.2
2018-Feb-15 13:23N 41°12' W 072°51'1 1.8
2018-Feb-15 13:00N 41°12' W 072°50'510.6
2018-Feb-15 12:31N 41°11' W 072°43'713.3
2018-Feb-15 12:00N 41°10' W 072°34'714.0
2018-Feb-15 11:30N 41°10' W 072°25'713.8
2018-Feb-15 11:00N 41°12' W 072°16'713.1
2018-Feb-15 10:30N 41°14' W 072°08'80 6.3
2018-Feb-14 21:40N 40°24' W 073°31'412.3
2018-Feb-14 21:20N 40°25' W 073°37'412.2
2018-Feb-14 21:00N 40°26' W 073°42'611.4
2018-Feb-14 20:29N 40°27' W 073°49'4 8.7
2018-Feb-14 20:00N 40°29' W 073°54'510.8
2018-Feb-14 19:30N 40°32' W 074°01'612.1
2018-Feb-14 19:01N 40°37' W 074°03'2 3.0
2018-Feb-14 18:28N 40°39' W 074°03'0 0.0
2018-Feb-14 17:58N 40°39' W 074°03'0 0.0
2018-Feb-14 17:28N 40°39' W 074°03'0 0.0
2018-Feb-14 16:58N 40°39' W 074°03'0 0.1
2018-Feb-14 16:28N 40°39' W 074°03'0 0.1
2018-Feb-14 15:58N 40°39' W 074°03'0 0.1
2018-Feb-14 15:28N 40°39' W 074°03'0 0.2
2018-Feb-14 14:58N 40°39' W 074°03'0 0.1
2018-Feb-14 14:25N 40°39' W 074°03'0 0.0
2018-Feb-14 13:58N 40°39' W 074°03'0 0.1
2018-Feb-14 13:28N 40°39' W 074°03'0 0.0
2018-Feb-14 12:58N 40°39' W 074°03'0 0.0
2018-Feb-14 12:28N 40°39' W 074°03'0 0.0
2018-Feb-14 11:58N 40°39' W 074°03'0 0.0
2018-Feb-14 11:28N 40°39' W 074°03'0 0.0
2018-Feb-14 10:58N 40°39' W 074°03'0 0.0
2018-Feb-14 10:28N 40°39' W 074°03'0 0.1
2018-Feb-14 09:58N 40°39' W 074°03'0 0.3
2018-Feb-14 09:28N 40°39' W 074°03'0 0.1
2018-Feb-14 08:58N 40°39' W 074°03'0 0.0
2018-Feb-14 08:28N 40°39' W 074°03'0 0.0
2018-Feb-14 07:58N 40°39' W 074°03'0 0.0
2018-Feb-14 07:28N 40°39' W 074°03'0 0.0
2018-Feb-14 06:58N 40°39' W 074°03'0 0.0
2018-Feb-14 06:28N 40°39' W 074°03'0 0.0
2018-Feb-14 05:58N 40°39' W 074°03'0 0.1
2018-Feb-14 05:28N 40°39' W 074°03'0 0.1
2018-Feb-14 04:58N 40°39' W 074°03'0 0.1
2018-Feb-14 04:28N 40°39' W 074°03'0 0.1
2018-Feb-14 03:58N 40°39' W 074°03'0 0.1
2018-Feb-14 03:28N 40°39' W 074°03'0 0.2
2018-Feb-14 02:58N 40°39' W 074°03'0 0.3
2018-Feb-14 02:28N 40°39' W 074°03'0 0.1
2018-Feb-14 01:58N 40°39' W 074°03'0 0.0
2018-Feb-14 01:28N 40°39' W 074°03'0 0.0
2018-Feb-14 00:58N 40°39' W 074°03'0 0.0
2018-Feb-14 00:28N 40°39' W 074°03'0 0.0
2018-Feb-13 23:58N 40°39' W 074°03'0 0.1
2018-Feb-13 23:28N 40°39' W 074°03'0 0.1
2018-Feb-13 22:58N 40°39' W 074°03'0 0.0
2018-Feb-13 22:28N 40°39' W 074°03'0 0.0
2018-Feb-13 21:58N 40°39' W 074°03'0 0.1
2018-Feb-13 21:28N 40°39' W 074°03'0 0.2
2018-Feb-13 20:58N 40°39' W 074°03'0 0.1
2018-Feb-13 20:28N 40°39' W 074°03'0 0.3
2018-Feb-13 20:00N 40°39' W 074°03'2 3.5
2018-Feb-13 19:30N 40°39' W 074°05'3 5.5
2018-Feb-13 19:00N 40°39' W 074°09'2 4.5
2018-Feb-13 18:29N 40°41' W 074°09'0 0.4
2018-Feb-13 17:59N 40°41' W 074°08'0 0.0
2018-Feb-13 17:29N 40°41' W 074°08'0 0.0
2018-Feb-13 16:59N 40°41' W 074°08'0 0.0
2018-Feb-13 16:29N 40°41' W 074°08'0 0.0
2018-Feb-13 15:59N 40°41' W 074°08'0 0.0
2018-Feb-13 15:29N 40°41' W 074°08'0 0.0
2018-Feb-13 14:59N 40°41' W 074°08'0 0.0
2018-Feb-13 14:29N 40°41' W 074°08'0 0.0
2018-Feb-13 13:59N 40°41' W 074°08'0 0.0
2018-Feb-13 13:29N 40°41' W 074°08'0 0.0
2018-Feb-13 12:59N 40°41' W 074°08'0 0.0
2018-Feb-13 12:29N 40°41' W 074°08'0 0.0
2018-Feb-13 11:59N 40°41' W 074°08'0 0.0
2018-Feb-13 11:29N 40°41' W 074°08'0 0.0
2018-Feb-13 10:59N 40°41' W 074°08'0 0.0
2018-Feb-13 10:29N 40°41' W 074°08'0 0.0
2018-Feb-13 09:59N 40°41' W 074°08'0 0.0
2018-Feb-13 09:29N 40°41' W 074°08'0 0.0
2018-Feb-13 08:59N 40°41' W 074°08'0 0.0
2018-Feb-13 08:29N 40°41' W 074°08'0 0.0
2018-Feb-13 07:59N 40°41' W 074°08'0 0.0
2018-Feb-13 07:29N 40°41' W 074°08'0 0.0
2018-Feb-13 06:59N 40°41' W 074°08'0 0.0
2018-Feb-13 06:29N 40°41' W 074°08'0 0.0
2018-Feb-13 05:59N 40°41' W 074°08'0 0.0
2018-Feb-13 05:29N 40°41' W 074°08'0 0.0
2018-Feb-13 04:59N 40°41' W 074°08'0 0.0
2018-Feb-13 04:29N 40°41' W 074°08'0 0.0
2018-Feb-13 03:59N 40°41' W 074°08'0 0.0
2018-Feb-13 03:29N 40°41' W 074°08'0 0.0
2018-Feb-13 02:59N 40°41' W 074°08'0 0.0
2018-Feb-13 02:29N 40°41' W 074°08'0 0.0
2018-Feb-13 01:59N 40°41' W 074°08'0 0.0
2018-Feb-13 01:29N 40°41' W 074°08'0 0.0
2018-Feb-13 00:59N 40°41' W 074°08'0 0.0
2018-Feb-13 00:29N 40°41' W 074°08'0 0.0
2018-Feb-12 23:59N 40°41' W 074°08'0 0.0
2018-Feb-12 23:29N 40°41' W 074°08'0 0.0
2018-Feb-12 22:59N 40°41' W 074°08'0 0.0
2018-Feb-12 22:29N 40°41' W 074°08'0 0.0
2018-Feb-12 21:59N 40°41' W 074°08'0 0.0
2018-Feb-12 21:29N 40°41' W 074°08'0 0.0
2018-Feb-12 20:53N 40°41' W 074°08'0 0.0
2018-Feb-12 20:29N 40°41' W 074°08'0 0.0
2018-Feb-12 19:59N 40°41' W 074°08'0 0.0
2018-Feb-12 19:29N 40°41' W 074°08'0 0.0
2018-Feb-12 18:59N 40°41' W 074°08'0 0.0
2018-Feb-12 18:29N 40°41' W 074°08'0 0.0
2018-Feb-12 17:59N 40°41' W 074°08'0 0.0
2018-Feb-12 17:29N 40°41' W 074°08'0 0.0
2018-Feb-12 16:59N 40°41' W 074°08'0 0.0
2018-Feb-12 16:29N 40°41' W 074°08'0 0.0
2018-Feb-12 15:59N 40°41' W 074°08'0 0.0
2018-Feb-12 15:17N 40°41' W 074°08'0 0.0
2018-Feb-12 14:59N 40°41' W 074°08'0 0.0
2018-Feb-12 14:29N 40°41' W 074°08'0 0.0
2018-Feb-12 13:59N 40°41' W 074°08'0 0.0
2018-Feb-12 13:29N 40°41' W 074°08'0 0.0
2018-Feb-12 12:59N 40°41' W 074°08'0 0.0
2018-Feb-12 12:29N 40°41' W 074°08'0 0.0
2018-Feb-12 11:59N 40°41' W 074°08'0 0.0
2018-Feb-12 11:29N 40°41' W 074°08'0 0.0
2018-Feb-12 10:59N 40°41' W 074°08'0 0.0
2018-Feb-12 10:29N 40°41' W 074°08'0 0.0
2018-Feb-12 09:59N 40°41' W 074°08'0 0.0
2018-Feb-12 09:29N 40°41' W 074°08'0 0.0
2018-Feb-12 08:59N 40°41' W 074°08'0 0.0
2018-Feb-12 08:29N 40°41' W 074°08'0 0.0
2018-Feb-12 07:59N 40°41' W 074°08'0 0.0
2018-Feb-12 07:29N 40°41' W 074°08'0 0.0
2018-Feb-12 06:59N 40°41' W 074°08'0 0.0
2018-Feb-12 06:29N 40°41' W 074°08'0 0.0
2018-Feb-12 05:59N 40°41' W 074°08'0 0.0
2018-Feb-12 05:29N 40°41' W 074°08'0 0.0
2018-Feb-12 04:59N 40°41' W 074°08'0 0.0
2018-Feb-12 04:29N 40°41' W 074°08'0 0.0
2018-Feb-12 03:59N 40°41' W 074°08'0 0.0
2018-Feb-12 03:29N 40°41' W 074°08'0 0.0
2018-Feb-12 02:59N 40°41' W 074°08'0 0.0
2018-Feb-12 02:29N 40°41' W 074°08'0 0.0
2018-Feb-12 01:59N 40°41' W 074°08'0 0.0
2018-Feb-12 01:29N 40°41' W 074°08'0 0.0
2018-Feb-12 00:59N 40°41' W 074°08'0 0.0
2018-Feb-12 00:29N 40°41' W 074°08'0 0.0
2018-Feb-11 23:59N 40°41' W 074°08'0 0.0
2018-Feb-11 23:29N 40°41' W 074°08'0 0.0
2018-Feb-11 22:59N 40°41' W 074°08'0 0.0
2018-Feb-11 22:29N 40°41' W 074°08'0 0.0
2018-Feb-11 21:59N 40°41' W 074°08'0 0.0
2018-Feb-11 21:29N 40°41' W 074°08'0 0.0
2018-Feb-11 20:59N 40°41' W 074°08'0 0.0
2018-Feb-11 20:29N 40°41' W 074°08'0 0.0
2018-Feb-11 19:59N 40°41' W 074°08'0 0.0
2018-Feb-11 19:29N 40°41' W 074°08'0 0.0
2018-Feb-11 18:59N 40°41' W 074°08'0 0.0
2018-Feb-11 18:29N 40°41' W 074°08'0 0.0
2018-Feb-11 17:59N 40°41' W 074°08'0 0.0
2018-Feb-11 17:29N 40°41' W 074°08'0 0.0
2018-Feb-11 16:59N 40°41' W 074°08'0 0.0
2018-Feb-11 16:29N 40°41' W 074°08'0 0.0
2018-Feb-11 15:59N 40°41' W 074°08'0 0.0
2018-Feb-11 15:29N 40°41' W 074°08'0 0.0
2018-Feb-11 14:59N 40°41' W 074°08'0 0.0
2018-Feb-11 14:29N 40°41' W 074°08'0 0.0
2018-Feb-11 13:59N 40°41' W 074°08'0 0.0
2018-Feb-11 13:29N 40°41' W 074°08'0 0.0
2018-Feb-11 12:59N 40°41' W 074°08'0 0.0
2018-Feb-11 12:29N 40°41' W 074°08'0 0.0
2018-Feb-11 11:59N 40°41' W 074°08'0 0.0
2018-Feb-11 11:29N 40°41' W 074°08'0 0.0
2018-Feb-11 10:59N 40°41' W 074°08'0 0.0
2018-Feb-11 10:29N 40°41' W 074°08'0 0.0
2018-Feb-11 09:59N 40°41' W 074°08'0 0.0
2018-Feb-11 09:29N 40°41' W 074°08'0 0.0
2018-Feb-11 08:59N 40°41' W 074°08'0 0.0
2018-Feb-11 08:29N 40°41' W 074°08'0 0.0
2018-Feb-11 07:59N 40°41' W 074°08'0 0.0
2018-Feb-11 07:29N 40°41' W 074°08'0 0.0
2018-Feb-11 06:59N 40°41' W 074°08'0 0.0
2018-Feb-11 06:29N 40°41' W 074°08'0 0.0
2018-Feb-11 05:59N 40°41' W 074°08'0 0.0
2018-Feb-11 05:29N 40°41' W 074°08'0 0.0
2018-Feb-11 04:59N 40°41' W 074°08'0 0.0
2018-Feb-11 04:29N 40°41' W 074°08'  

Dump ship's entire track history